Time;durP1;ratioP1;P1;durP2;ratioP2;P2;SDS_P1;SDS_P2;PMS_P1;PMS_P2;Temp;Humidity;BMP_temperature;BMP_pressure;BME280_temperature;BME280_humidity;BME280_pressure;Samples;Min_cycle;Max_cycle;Signal;HPM_P1;HPM_P2
2023/07/07 00:15:47;;;;;;;;;;;;;;;27.07;46.68;100453.06;41902818;28;20035;-81
2023/07/07 00:35:48;;;;;;;;;;;;;;;27.06;46.67;100461.22;41914974;28;19933;-79
2023/07/07 00:55:51;;;;;;;;;;;;;;;27.04;46.90;100463.19;41906886;28;19982;-81
2023/07/07 01:16:18;;;;;;;;;;;;;;;27.02;46.96;100476.63;41919430;28;19968;-82
2023/07/07 01:36:18;;;;;;;;;;;;;;;27.00;46.94;100482.13;41928560;28;19924;-82
2023/07/07 01:56:21;;;;;;;;;;;;;;;26.99;47.06;100480.44;41912153;28;19928;-81
2023/07/07 02:16:21;;;;;;;;;;;;;;;26.96;46.65;100479.91;41914147;28;19929;-80
2023/07/07 02:36:21;;;;;;;;;;;;;;;26.94;46.64;100474.75;41910403;28;19924;-82
2023/07/07 02:56:29;;;;;;;;;;;;;;;26.94;46.76;100480.06;41891485;28;20402;-78
2023/07/07 03:16:33;;;;;;;;;;;;;;;26.93;46.61;100506.81;41900785;28;20749;-81
2023/07/07 03:36:34;;;;;;;;;;;;;;;26.90;46.81;100515.91;41895214;28;19929;-82
2023/07/07 03:56:35;;;;;;;;;;;;;;;26.90;46.47;100536.34;41933844;28;20086;-82
2023/07/07 04:16:35;;;;;;;;;;;;;;;26.88;46.82;100546.28;41911156;28;19932;-83
2023/07/07 04:36:36;;;;;;;;;;;;;;;26.88;46.29;100559.56;41917583;28;19928;-81
2023/07/07 04:56:38;;;;;;;;;;;;;;;26.86;46.84;100580.97;41923297;28;20346;-82
2023/07/07 05:16:38;;;;;;;;;;;;;;;26.87;46.42;100595.06;41927430;28;19951;-82
2023/07/07 05:36:38;;;;;;;;;;;;;;;26.86;46.64;100598.75;41906792;28;20055;-82
2023/07/07 05:56:39;;;;;;;;;;;;;;;26.86;46.09;100618.16;41894237;28;19939;-81
2023/07/07 06:16:39;;;;;;;;;;;;;;;26.87;45.81;100641.09;41903102;28;20327;-81
2023/07/07 06:36:40;;;;;;;;;;;;;;;26.87;46.15;100650.88;41893953;28;19939;-81
2023/07/07 06:56:41;;;;;;;;;;;;;;;26.88;46.22;100661.38;41893114;28;19935;-83
2023/07/07 07:16:42;;;;;;;;;;;;;;;26.92;46.00;100675.19;41893757;28;20390;-80
2023/07/07 07:36:42;;;;;;;;;;;;;;;26.95;46.10;100685.50;41895283;28;20012;-82
2023/07/07 07:56:42;;;;;;;;;;;;;;;26.94;45.93;100695.31;41880195;28;19980;-83
2023/07/07 08:16:44;;;;;;;;;;;;;;;26.94;45.82;100703.28;41898220;28;20375;-82
2023/07/07 08:36:45;;;;;;;;;;;;;;;26.97;46.14;100710.13;41928537;28;20514;-83
2023/07/07 08:56:58;;;;;;;;;;;;;;;26.98;46.08;100720.59;41928616;28;19951;-78
2023/07/07 09:17:00;;;;;;;;;;;;;;;26.99;46.16;100721.44;41903463;28;20498;-82
2023/07/07 09:37:03;;;;;;;;;;;;;;;27.02;45.63;100721.13;41920714;28;19921;-82
2023/07/07 09:57:08;;;;;;;;;;;;;;;27.05;45.47;100727.97;41919831;28;19928;-85
2023/07/07 10:17:09;;;;;;;;;;;;;;;27.10;45.41;100723.03;41944236;28;20379;-83
2023/07/07 10:37:19;;;;;;;;;;;;;;;27.14;45.39;100732.41;41942415;28;19929;-79
2023/07/07 10:57:36;;;;;;;;;;;;;;;27.18;45.12;100717.81;41906442;28;19928;-81
2023/07/07 11:17:55;;;;;;;;;;;;;;;27.23;45.36;100712.03;41915533;28;19978;-83
2023/07/07 11:37:58;;;;;;;;;;;;;;;27.28;45.38;100707.94;41917087;28;19984;-83
2023/07/07 11:57:58;;;;;;;;;;;;;;;27.32;45.24;100704.00;41916778;28;19925;-83
2023/07/07 12:18:17;;;;;;;;;;;;;;;27.40;44.89;100695.25;41931722;28;19928;-83
2023/07/07 12:38:22;;;;;;;;;;;;;;;27.48;44.70;100684.72;41941034;28;20010;-81
2023/07/07 12:58:30;;;;;;;;;;;;;;;27.59;44.96;100669.50;41936188;28;19983;-83
2023/07/07 13:18:30;;;;;;;;;;;;;;;27.70;44.44;100668.44;41922835;28;20078;-81
2023/07/07 13:38:33;;;;;;;;;;;;;;;27.80;44.31;100659.34;41918177;28;19985;-80
2023/07/07 13:58:40;;;;;;;;;;;;;;;27.79;44.25;100665.66;41916928;28;19933;-84
2023/07/07 14:18:43;;;;;;;;;;;;;;;27.88;44.17;100660.38;41895384;28;19981;-83
2023/07/07 14:39:09;;;;;;;;;;;;;;;27.97;43.86;100662.13;41907814;28;19924;-79
2023/07/07 14:59:18;;;;;;;;;;;;;;;27.96;43.67;100665.75;41857483;28;19928;-82
2023/07/07 15:19:20;;;;;;;;;;;;;;;28.02;43.62;100661.66;41890207;28;19924;-80
2023/07/07 15:39:20;;;;;;;;;;;;;;;28.05;43.87;100654.22;41905839;28;19931;-84
2023/07/07 15:59:22;;;;;;;;;;;;;;;28.10;43.73;100643.09;41926072;28;19932;-83
2023/07/07 16:19:23;;;;;;;;;;;;;;;28.13;43.58;100645.41;41906017;28;19928;-82
2023/07/07 16:39:23;;;;;;;;;;;;;;;28.12;43.52;100657.06;41880565;28;20361;-83
2023/07/07 16:59:24;;;;;;;;;;;;;;;28.07;43.68;100664.69;41915899;28;20024;-82
2023/07/07 17:19:24;;;;;;;;;;;;;;;28.00;43.82;100668.94;41932250;28;19956;-82
2023/07/07 17:39:34;;;;;;;;;;;;;;;27.92;43.92;100678.53;41927220;28;19924;-82
2023/07/07 17:59:34;;;;;;;;;;;;;;;27.84;43.99;100686.47;41941394;28;19951;-82
2023/07/07 18:19:34;;;;;;;;;;;;;;;27.78;44.29;100700.41;41899725;28;19970;-82
2023/07/07 18:39:35;;;;;;;;;;;;;;;27.68;44.17;100716.44;41923485;28;19924;-82
2023/07/07 18:59:35;;;;;;;;;;;;;;;27.63;44.25;100750.66;41919224;28;19930;-83
2023/07/07 19:19:36;;;;;;;;;;;;;;;27.58;44.37;100772.41;41924714;28;19935;-81
2023/07/07 19:39:36;;;;;;;;;;;;;;;27.52;44.23;100791.63;41930041;28;19909;-82
2023/07/07 19:59:36;;;;;;;;;;;;;;;27.47;44.07;100793.91;41906887;28;19992;-82
2023/07/07 20:19:37;;;;;;;;;;;;;;;27.41;44.00;100800.66;41934309;28;19925;-82
2023/07/07 20:39:37;;;;;;;;;;;;;;;27.39;43.81;100831.03;41952383;28;19932;-82
2023/07/07 20:59:38;;;;;;;;;;;;;;;27.37;43.93;100839.16;41937355;28;20308;-81
2023/07/07 21:19:38;;;;;;;;;;;;;;;27.32;43.68;100862.69;41936083;28;19943;-82
2023/07/07 21:39:38;;;;;;;;;;;;;;;27.29;44.08;100874.47;41939535;28;19929;-82
2023/07/07 21:59:38;;;;;;;;;;;;;;;27.27;44.25;100878.25;41938735;28;19996;-82
2023/07/07 22:19:39;;;;;;;;;;;;;;;27.26;44.30;100882.72;41915617;28;19929;-81
2023/07/07 22:39:45;;;;;;;;;;;;;;;27.23;43.97;100874.22;41937560;28;20290;-81
2023/07/07 22:59:46;;;;;;;;;;;;;;;27.18;44.11;100864.00;41937197;28;21225;-82
2023/07/07 23:19:53;;;;;;;;;;;;;;;27.16;44.13;100848.22;41909708;28;19930;-80
2023/07/07 23:39:55;;;;;;;;;;;;;;;27.15;44.22;100845.72;41917719;28;21318;-82
2023/07/07 23:59:55;;;;;;;;;;;;;;;27.13;44.18;100848.50;41908250;28;19940;-83
